Time;durP1;ratioP1;P1;durP2;ratioP2;P2;SDS_P1;SDS_P2;PMS_P1;PMS_P2;Temp;Humidity;BMP_temperature;BMP_pressure;BME280_temperature;BME280_humidity;BME280_pressure;Samples;Min_cycle;Max_cycle;Signal;HPM_P1;HPM_P2
2021/11/07 00:00:39;;;;;;;11.37;5.10;;;7.00;99.90;6.90;100985.00;;;;4939596;28;87824;-65
2021/11/07 00:03:19;;;;;;;6.00;4.37;;;7.00;99.90;6.90;100976.00;;;;4941995;28;87697;-65
2021/11/07 00:05:53;;;;;;;8.27;5.67;;;7.00;99.90;7.00;100970.00;;;;4942918;28;87070;-65
2021/11/07 00:13:36;;;;;;;6.20;4.43;;;7.10;99.90;7.00;100952.00;;;;4931248;28;89153;-64
2021/11/07 00:16:08;;;;;;;7.43;4.67;;;7.10;99.90;7.00;100963.00;;;;4941359;28;116611;-64
2021/11/07 00:18:42;;;;;;;16.33;5.30;;;7.10;99.90;7.00;100959.00;;;;4941613;28;88335;-65
2021/11/07 00:21:16;;;;;;;7.40;5.07;;;7.10;99.90;7.00;100940.00;;;;4942546;28;87792;-64
2021/11/07 00:27:04;;;;;;;4.97;4.27;;;7.10;99.90;7.00;100938.00;;;;4920525;28;87869;-65
2021/11/07 00:29:09;;;;;;;5.93;4.47;;;7.10;99.90;7.00;100928.00;;;;4935580;28;88062;-65
2021/11/07 00:36:52;;;;;;;6.30;4.13;;;7.20;99.90;7.10;100917.00;;;;4938856;28;88105;-64
2021/11/07 00:39:30;;;;;;;6.47;4.47;;;7.10;99.90;7.10;100934.00;;;;4941661;28;89015;-65
2021/11/07 00:44:36;;;;;;;6.13;4.63;;;7.20;99.90;7.10;100922.00;;;;4938707;28;87719;-64
2021/11/07 00:47:14;;;;;;;6.73;4.27;;;7.20;99.90;7.10;100915.00;;;;4941934;28;88098;-64
2021/11/07 00:49:43;;;;;;;4.37;3.87;;;7.20;99.90;7.20;100909.00;;;;4919464;28;88876;-66
2021/11/07 00:54:50;;;;;;;6.23;4.17;;;7.30;99.90;7.20;100909.00;;;;4935384;28;87717;-64
2021/11/07 00:57:23;;;;;;;4.60;3.20;;;7.30;99.90;7.20;100907.00;;;;4938056;28;87894;-64
2021/11/07 01:00:01;;;;;;;6.03;4.00;;;7.30;99.90;7.30;100897.00;;;;4938208;28;88010;-65
2021/11/07 01:02:35;;;;;;;6.47;4.17;;;7.30;99.90;7.30;100899.00;;;;4937723;28;87761;-64
2021/11/07 01:05:06;;;;;;;8.10;3.90;;;7.40;99.90;7.30;100896.00;;;;4918543;28;88590;-65
2021/11/07 01:07:32;;;;;;;5.33;4.13;;;7.40;99.90;7.40;100886.00;;;;4929443;28;88306;-65
2021/11/07 01:09:58;;;;;;;4.83;3.20;;;7.50;99.90;7.40;100877.00;;;;4952785;28;88109;-65
2021/11/07 01:12:25;;;;;;;4.73;3.30;;;7.40;99.90;7.40;100886.00;;;;4937856;28;87630;-65
2021/11/07 01:14:56;;;;;;;3.47;2.83;;;7.40;99.90;7.40;100887.00;;;;4938723;28;87762;-65
2021/11/07 01:17:22;;;;;;;4.47;3.43;;;7.50;99.90;7.40;100869.00;;;;4937837;28;87765;-65
2021/11/07 01:19:52;;;;;;;6.67;3.83;;;7.50;99.90;7.50;100867.00;;;;4937628;28;117180;-65
2021/11/07 01:22:22;;;;;;;5.40;3.10;;;7.60;99.90;7.50;100850.00;;;;4937815;28;86920;-65
2021/11/07 01:24:55;;;;;;;6.43;3.90;;;7.60;99.90;7.50;100839.00;;;;4938227;28;87951;-66
2021/11/07 01:27:27;;;;;;;5.23;3.60;;;7.60;99.90;7.60;100848.00;;;;4937365;28;88715;-65
2021/11/07 01:29:55;;;;;;;5.17;3.17;;;7.60;99.90;7.60;100845.00;;;;4937081;28;89161;-65
2021/11/07 01:32:24;;;;;;;5.80;3.23;;;7.60;99.90;7.60;100851.00;;;;4937766;28;87834;-65
2021/11/07 01:35:01;;;;;;;5.27;3.27;;;7.60;99.90;7.60;100847.00;;;;4937184;28;87984;-65
2021/11/07 01:37:32;;;;;;;3.60;3.10;;;7.60;99.90;7.60;100832.00;;;;4937293;28;88362;-64
2021/11/07 01:40:11;;;;;;;6.73;3.17;;;7.70;99.90;7.60;100820.00;;;;4937523;28;88014;-65
2021/11/07 01:42:41;;;;;;;6.07;3.13;;;7.70;99.90;7.60;100821.00;;;;4937574;28;87908;-64
2021/11/07 01:45:24;;;;;;;4.50;3.40;;;7.70;99.90;7.70;100790.00;;;;4937818;28;87464;-65
2021/11/07 01:47:54;;;;;;;5.60;3.27;;;7.70;99.90;7.70;100790.00;;;;4937347;28;87067;-65
2021/11/07 01:50:20;;;;;;;3.47;2.47;;;7.70;99.90;7.70;100781.00;;;;4937207;28;88062;-65
2021/11/07 01:52:52;;;;;;;4.63;3.30;;;7.70;99.90;7.70;100768.00;;;;4936824;28;87728;-64
2021/11/07 01:55:19;;;;;;;4.50;2.87;;;7.80;99.90;7.70;100771.00;;;;4937428;28;88655;-65
2021/11/07 01:57:49;;;;;;;3.10;2.60;;;7.80;99.90;7.80;100774.00;;;;4951595;28;88110;-65
2021/11/07 02:00:23;;;;;;;5.00;2.93;;;7.80;99.90;7.80;100769.00;;;;4936992;28;88665;-65
2021/11/07 02:02:50;;;;;;;4.47;3.43;;;7.70;99.90;7.80;100758.00;;;;4937105;28;87667;-65
2021/11/07 02:05:16;;;;;;;4.63;3.10;;;7.80;99.90;7.80;100762.00;;;;4936637;28;88046;-64
2021/11/07 02:07:42;;;;;;;3.20;2.60;;;7.80;99.90;7.80;100750.00;;;;4936463;28;89068;-65
2021/11/07 02:10:13;;;;;;;4.90;3.07;;;7.90;99.90;7.80;100748.00;;;;4936017;28;116164;-65
2021/11/07 02:12:40;;;;;;;5.97;2.20;;;7.90;99.90;7.80;100738.00;;;;4936509;28;101113;-65
2021/11/07 02:15:19;;;;;;;5.50;3.07;;;7.90;99.90;7.80;100738.00;;;;4937372;28;87907;-65
2021/11/07 02:17:45;;;;;;;3.43;2.30;;;7.80;99.90;7.80;100734.00;;;;4950976;28;88087;-66
2021/11/07 02:20:33;;;;;;;4.20;2.90;;;7.90;99.90;7.70;100744.00;;;;4935395;28;113689;-65
2021/11/07 02:23:21;;;;;;;4.87;3.47;;;7.80;99.90;7.70;100741.00;;;;4936669;28;87929;-66
2021/11/07 02:25:50;;;;;;;4.70;2.77;;;8.30;99.90;7.70;100734.00;;;;4937773;28;88101;-65
2021/11/07 02:28:35;;;;;;;6.53;3.60;;;7.80;99.90;7.70;100724.00;;;;4935269;28;88840;-65
2021/11/07 02:31:04;;;;;;;4.60;2.20;;;7.90;99.90;7.70;100726.00;;;;4940124;28;88434;-65
2021/11/07 02:33:29;;;;;;;4.63;3.43;;;7.80;99.90;7.70;100711.00;;;;4922095;28;87962;-65
2021/11/07 02:35:55;;;;;;;4.77;2.93;;;7.80;99.90;7.70;100719.00;;;;4937230;28;87752;-64
2021/11/07 02:38:21;;;;;;;6.00;2.37;;;7.80;99.90;7.70;100720.00;;;;4935690;28;115534;-65
2021/11/07 02:40:47;;;;;;;4.87;3.53;;;7.70;99.90;7.60;100720.00;;;;4936037;28;105656;-65
2021/11/07 02:43:13;;;;;;;4.57;2.90;;;7.70;99.90;7.60;100700.00;;;;4936028;28;100136;-65
2021/11/07 02:45:39;;;;;;;4.60;3.43;;;7.80;99.90;7.60;100700.00;;;;4935591;28;108510;-64
2021/11/07 02:48:05;;;;;;;6.07;2.80;;;7.70;99.90;7.70;100691.00;;;;4936074;28;89160;-66
2021/11/07 02:50:31;;;;;;;3.07;2.77;;;7.70;99.90;7.70;100682.00;;;;4936909;28;88888;-64
2021/11/07 02:52:58;;;;;;;2.40;2.20;;;7.70;99.90;7.70;100677.00;;;;4950614;28;88061;-64
2021/11/07 02:55:25;;;;;;;5.23;2.60;;;7.80;99.90;7.80;100669.00;;;;4936078;28;107116;-64
2021/11/07 02:58:00;;;;;;;5.77;2.63;;;7.90;99.90;7.80;100670.00;;;;4936237;28;88805;-65
2021/11/07 03:00:30;;;;;;;5.27;3.27;;;7.90;99.90;7.80;100677.00;;;;4934235;28;87915;-65
2021/11/07 03:02:57;;;;;;;5.53;2.97;;;7.90;99.90;7.80;100667.00;;;;4936654;28;86979;-65
2021/11/07 03:05:23;;;;;;;4.07;3.03;;;7.90;99.90;7.80;100654.00;;;;4936339;28;87736;-64
2021/11/07 03:07:49;;;;;;;4.83;3.17;;;7.90;99.90;7.80;100653.00;;;;4936129;28;88959;-64
2021/11/07 03:10:17;;;;;;;4.53;3.07;;;7.90;99.90;7.80;100651.00;;;;4935275;28;104128;-66
2021/11/07 03:12:44;;;;;;;4.07;3.07;;;7.90;99.90;7.80;100650.00;;;;4935651;28;87916;-65
2021/11/07 03:15:12;;;;;;;4.90;2.53;;;7.90;99.90;7.80;100651.00;;;;4936287;28;87745;-65
2021/11/07 03:17:39;;;;;;;3.30;2.37;;;7.90;99.90;7.80;100638.00;;;;4935783;28;89234;-65
2021/11/07 03:20:08;;;;;;;4.60;2.97;;;7.80;99.90;7.80;100624.00;;;;4936219;28;87968;-65
2021/11/07 03:22:34;;;;;;;4.23;2.40;;;7.90;99.90;7.80;100626.00;;;;4935794;28;87780;-65
2021/11/07 03:25:02;;;;;;;3.27;2.30;;;7.80;99.90;7.80;100626.00;;;;4935434;28;87482;-65
2021/11/07 03:27:43;;;;;;;5.27;2.83;;;7.90;99.90;7.80;100628.00;;;;4935879;28;87168;-65
2021/11/07 03:30:54;;;;;;;3.60;2.60;;;7.90;99.90;7.80;100623.00;;;;4936375;28;87949;-64
2021/11/07 03:33:30;;;;;;;6.43;3.23;;;7.90;99.90;7.90;100618.00;;;;4935514;28;87811;-65
2021/11/07 03:35:58;;;;;;;6.67;2.87;;;7.90;99.90;7.90;100613.00;;;;4935872;28;88780;-64
2021/11/07 03:38:24;;;;;;;2.93;2.23;;;8.00;99.90;7.90;100617.00;;;;4935413;28;88484;-65
2021/11/07 03:40:50;;;;;;;2.93;2.23;;;8.00;99.90;8.00;100610.00;;;;4935640;28;88440;-65
2021/11/07 03:43:16;;;;;;;4.13;2.33;;;8.00;99.90;8.00;100597.00;;;;4936168;28;87974;-65
2021/11/07 03:45:42;;;;;;;2.93;2.50;;;8.00;99.90;8.10;100591.00;;;;4936085;28;90359;-65
2021/11/07 03:48:10;;;;;;;2.17;1.83;;;8.10;99.90;8.10;100594.00;;;;4934856;28;102883;-65
2021/11/07 03:50:36;;;;;;;2.70;2.13;;;8.10;99.60;8.20;100573.00;;;;4935895;28;88384;-65
2021/11/07 03:53:02;;;;;;;2.07;1.87;;;8.20;99.50;8.20;100565.00;;;;4935196;28;100791;-65
2021/11/07 03:55:28;;;;;;;2.67;1.77;;;8.30;98.90;8.20;100559.00;;;;4935892;28;88072;-65
2021/11/07 03:57:54;;;;;;;2.63;2.37;;;8.20;99.00;8.20;100558.00;;;;4935365;28;88233;-65
2021/11/07 04:00:22;;;;;;;4.23;2.03;;;8.30;99.10;8.30;100546.00;;;;4934783;28;88710;-64
2021/11/07 04:02:48;;;;;;;4.83;2.47;;;8.30;98.80;8.30;100547.00;;;;4935564;28;87803;-65
2021/11/07 04:05:14;;;;;;;4.03;2.20;;;8.30;98.30;8.30;100544.00;;;;4935837;28;87812;-65
2021/11/07 04:07:40;;;;;;;5.17;3.27;;;8.40;98.10;8.30;100531.00;;;;4950034;28;88094;-64
2021/11/07 04:10:09;;;;;;;3.70;2.73;;;8.40;98.30;8.30;100534.00;;;;4934208;28;108106;-66
2021/11/07 04:12:35;;;;;;;5.60;2.60;;;8.40;97.80;8.30;100532.00;;;;4935359;28;87805;-64
2021/11/07 04:15:01;;;;;;;2.70;2.03;;;8.40;97.00;8.30;100537.00;;;;4935395;28;108595;-64
2021/11/07 04:17:27;;;;;;;2.60;1.70;;;8.40;96.90;8.30;100521.00;;;;4935176;28;88241;-65
2021/11/07 04:19:53;;;;;;;4.33;2.23;;;8.90;97.10;8.30;100519.00;;;;4934389;28;117437;-64
2021/11/07 04:22:18;;;;;;;2.93;1.77;;;8.40;96.60;8.30;100510.00;;;;4934916;28;109528;-64
2021/11/07 04:24:44;;;;;;;2.97;2.13;;;8.30;97.00;8.30;100502.00;;;;4935616;28;88817;-63
2021/11/07 04:27:10;;;;;;;5.70;2.00;;;8.30;96.70;8.30;100527.00;;;;4938804;28;89060;-65
2021/11/07 04:29:36;;;;;;;3.07;1.90;;;8.30;96.70;8.30;100520.00;;;;4937969;28;116786;-64
2021/11/07 04:32:03;;;;;;;2.17;1.97;;;8.40;96.60;8.30;100507.00;;;;4938765;28;87807;-65
2021/11/07 04:34:29;;;;;;;2.93;1.87;;;8.30;97.00;8.20;100491.00;;;;4937325;28;96670;-65
2021/11/07 04:36:56;;;;;;;3.10;1.57;;;8.30;96.60;8.30;100503.00;;;;4938627;28;88377;-65
2021/11/07 04:39:24;;;;;;;2.30;1.90;;;8.30;96.40;8.30;100496.00;;;;4938308;28;107637;-65
2021/11/07 04:41:50;;;;;;;2.07;1.83;;;8.30;96.50;8.40;100499.00;;;;4953788;28;87417;-65
2021/11/07 04:44:16;;;;;;;2.97;1.70;;;8.40;96.30;8.40;100489.00;;;;4938126;28;87617;-65
2021/11/07 04:46:42;;;;;;;1.93;1.33;;;8.40;96.10;8.40;100483.00;;;;4937449;28;117044;-65
2021/11/07 04:49:07;;;;;;;1.73;1.30;;;8.40;96.10;8.40;100482.00;;;;4937493;28;88829;-65
2021/11/07 04:51:33;;;;;;;2.67;1.83;;;8.40;95.70;8.40;100473.00;;;;4937832;28;108750;-66
2021/11/07 04:53:59;;;;;;;1.37;1.03;;;8.50;95.40;8.50;100455.00;;;;4937849;28;87647;-65
2021/11/07 04:56:26;;;;;;;2.33;1.70;;;8.50;95.10;8.50;100467.00;;;;4936828;28;117594;-64
2021/11/07 04:58:52;;;;;;;1.30;1.20;;;8.60;95.00;8.50;100464.00;;;;4938162;28;88048;-63
2021/11/07 05:01:18;;;;;;;2.10;1.47;;;8.50;95.10;8.50;100449.00;;;;4938994;28;87814;-63
2021/11/07 05:03:44;;;;;;;2.37;1.40;;;8.60;94.70;8.50;100457.00;;;;4937173;28;108572;-66
2021/11/07 05:06:09;;;;;;;2.57;1.50;;;8.50;94.50;8.50;100453.00;;;;4938608;28;87333;-64
2021/11/07 05:08:36;;;;;;;2.50;1.53;;;8.60;94.60;8.50;100447.00;;;;4936828;28;115805;-64
2021/11/07 05:11:02;;;;;;;2.17;1.60;;;8.50;94.50;8.40;100434.00;;;;4938643;28;87784;-64
2021/11/07 05:13:28;;;;;;;4.20;1.83;;;8.50;94.60;8.40;100439.00;;;;4936311;28;108013;-64
2021/11/07 05:15:54;;;;;;;1.93;1.40;;;8.50;94.60;8.40;100426.00;;;;4936707;28;117898;-64
2021/11/07 05:18:20;;;;;;;1.97;1.67;;;8.40;94.70;8.40;100415.00;;;;4937433;28;88885;-64
2021/11/07 05:20:46;;;;;;;1.73;1.57;;;8.40;94.70;8.40;100414.00;;;;4937902;28;87657;-64
2021/11/07 05:23:13;;;;;;;2.00;1.90;;;8.40;94.90;8.30;100410.00;;;;4937208;28;101888;-64
2021/11/07 05:25:39;;;;;;;2.67;1.83;;;8.40;94.90;8.30;100409.00;;;;4936927;28;88775;-64
2021/11/07 05:28:05;;;;;;;3.10;1.77;;;8.40;95.10;8.40;100411.00;;;;4937169;28;90207;-65
2021/11/07 05:30:30;;;;;;;3.67;1.97;;;8.40;95.10;8.30;100414.00;;;;4937961;28;87018;-65
2021/11/07 05:32:56;;;;;;;2.87;1.60;;;8.40;94.90;8.40;100409.00;;;;4936210;28;109979;-65
2021/11/07 05:35:22;;;;;;;2.83;1.80;;;8.40;95.00;8.40;100399.00;;;;4936052;28;116428;-64
2021/11/07 05:37:50;;;;;;;2.00;1.57;;;8.40;94.80;8.40;100397.00;;;;4937655;28;88944;-64
2021/11/07 05:40:18;;;;;;;2.97;1.80;;;8.40;94.70;8.40;100405.00;;;;4938282;28;87963;-64
2021/11/07 05:42:45;;;;;;;2.90;1.70;;;8.40;95.30;8.40;100404.00;;;;4937991;28;87786;-64
2021/11/07 05:45:10;;;;;;;2.53;1.83;;;8.50;95.40;8.40;100387.00;;;;4937802;28;89143;-64
2021/11/07 05:47:36;;;;;;;2.80;2.03;;;8.40;95.20;8.40;100381.00;;;;4937164;28;109389;-64
2021/11/07 05:50:05;;;;;;;4.10;1.60;;;8.50;95.70;8.40;100369.00;;;;4937211;28;110214;-63
2021/11/07 05:52:32;;;;;;;2.10;1.43;;;8.40;95.70;8.30;100376.00;;;;4937133;28;87754;-63
2021/11/07 05:54:58;;;;;;;2.13;1.60;;;8.40;95.50;8.30;100381.00;;;;4938689;28;87955;-64
2021/11/07 05:57:25;;;;;;;1.67;1.07;;;8.40;95.40;8.30;100376.00;;;;4937664;28;87868;-64
2021/11/07 05:59:50;;;;;;;1.47;1.33;;;8.40;95.70;8.30;100372.00;;;;4938366;28;87752;-64
2021/11/07 06:02:16;;;;;;;1.70;1.27;;;8.40;95.60;8.40;100370.00;;;;4937043;28;90475;-65
2021/11/07 06:04:42;;;;;;;2.33;1.60;;;8.40;95.50;8.40;100377.00;;;;4937626;28;88218;-64
2021/11/07 06:07:09;;;;;;;2.00;1.57;;;8.50;95.60;8.40;100372.00;;;;4937121;28;89181;-64
2021/11/07 06:09:35;;;;;;;1.27;1.17;;;8.50;95.40;8.50;100372.00;;;;4938137;28;87867;-64
2021/11/07 06:12:01;;;;;;;3.87;1.80;;;8.50;95.50;8.50;100365.00;;;;4938147;28;87751;-65
2021/11/07 06:14:27;;;;;;;1.47;1.33;;;8.50;95.40;8.60;100354.00;;;;4937504;28;92529;-64
2021/11/07 06:16:53;;;;;;;1.43;1.23;;;8.60;95.20;8.60;100361.00;;;;4936348;28;117064;-65
2021/11/07 06:19:19;;;;;;;2.13;1.50;;;8.60;95.20;8.60;100377.00;;;;4936895;28;111564;-64
2021/11/07 06:21:46;;;;;;;2.60;1.60;;;8.70;94.90;8.70;100365.00;;;;4936977;28;107722;-64
2021/11/07 06:24:15;;;;;;;3.23;1.60;;;8.70;95.00;8.80;100357.00;;;;4937414;28;88089;-64
2021/11/07 06:26:40;;;;;;;8.47;1.47;;;8.80;94.70;8.80;100360.00;;;;4936468;28;88618;-64
2021/11/07 06:29:07;;;;;;;1.30;1.20;;;8.80;94.70;8.80;100371.00;;;;4936963;28;87734;-64
2021/11/07 06:31:33;;;;;;;2.27;1.57;;;8.80;94.50;8.80;100356.00;;;;4938050;28;87718;-64
2021/11/07 06:33:59;;;;;;;0.87;0.83;;;8.90;94.60;8.80;100361.00;;;;4935926;28;89072;-64
2021/11/07 06:36:25;;;;;;;2.70;1.27;;;8.90;94.60;8.80;100363.00;;;;4936330;28;88866;-65
2021/11/07 06:38:50;;;;;;;2.57;1.70;;;8.90;94.80;8.90;100368.00;;;;4936393;28;93920;-63
2021/11/07 06:41:16;;;;;;;2.97;1.17;;;8.90;94.60;8.90;100354.00;;;;4934925;28;108839;-64
2021/11/07 06:43:43;;;;;;;1.90;1.37;;;8.90;94.60;8.90;100350.00;;;;4933697;28;87323;-64
2021/11/07 06:46:09;;;;;;;1.97;1.60;;;8.90;94.60;8.90;100355.00;;;;4933949;28;88664;-64
2021/11/07 06:48:35;;;;;;;3.97;1.20;;;9.00;94.70;8.90;100356.00;;;;4931311;28;95023;-64
2021/11/07 06:51:01;;;;;;;1.73;1.30;;;8.90;94.70;9.00;100358.00;;;;4932913;28;89088;-65
2021/11/07 06:53:28;;;;;;;1.90;1.30;;;9.00;94.90;8.90;100355.00;;;;4933161;28;87671;-65
2021/11/07 06:55:54;;;;;;;4.00;2.13;;;9.00;95.20;8.90;100354.00;;;;4932816;28;89194;-64
2021/11/07 06:58:21;;;;;;;3.27;2.23;;;9.00;95.50;8.90;100343.00;;;;4933254;28;87958;-64
2021/11/07 07:00:47;;;;;;;4.50;2.23;;;9.00;95.70;8.90;100349.00;;;;4933611;28;87757;-64
2021/11/07 07:03:13;;;;;;;2.97;1.83;;;9.00;96.00;8.90;100347.00;;;;4931484;28;116888;-65
2021/11/07 07:05:38;;;;;;;3.40;2.03;;;9.00;96.60;8.90;100351.00;;;;4931724;28;117603;-65
2021/11/07 07:08:15;;;;;;;2.27;1.73;;;9.00;96.40;8.90;100346.00;;;;4933669;28;87096;-64
2021/11/07 07:11:03;;;;;;;2.90;2.17;;;9.00;96.60;8.90;100337.00;;;;4933237;28;88091;-64
2021/11/07 07:13:37;;;;;;;3.77;2.00;;;9.00;97.00;8.90;100343.00;;;;4932317;28;88462;-64
2021/11/07 07:21:17;;;;;;;3.13;2.40;;;8.90;98.90;8.90;100359.00;;;;4929580;28;87756;-64
2021/11/07 07:34:29;;;;;;;5.77;2.57;;;8.80;99.90;8.80;100335.00;;;;4933152;28;87200;-65
2021/11/07 07:36:55;;;;;;;7.97;3.40;;;8.80;99.90;8.70;100342.00;;;;4932777;28;87776;-64
2021/11/07 07:39:22;;;;;;;4.13;2.50;;;8.80;99.90;8.80;100322.00;;;;4932065;28;111166;-64
2021/11/07 07:41:48;;;;;;;3.50;2.50;;;8.80;99.90;8.80;100319.00;;;;4931009;28;109493;-64
2021/11/07 07:44:14;;;;;;;4.53;2.57;;;8.80;99.90;8.80;100330.00;;;;4932428;28;89075;-63
2021/11/07 07:46:43;;;;;;;3.67;2.87;;;8.80;99.90;8.80;100338.00;;;;4932193;28;88994;-64
2021/11/07 07:49:13;;;;;;;4.87;2.40;;;8.90;99.90;8.80;100335.00;;;;4932305;28;87646;-64
2021/11/07 07:51:39;;;;;;;3.73;2.77;;;8.80;99.90;8.80;100336.00;;;;4933072;28;87898;-64
2021/11/07 07:54:06;;;;;;;4.23;2.57;;;8.90;99.90;8.80;100335.00;;;;4932356;28;89171;-63
2021/11/07 07:56:35;;;;;;;2.70;2.47;;;8.90;99.90;8.80;100338.00;;;;4931509;28;88297;-64
2021/11/07 07:59:02;;;;;;;3.70;3.10;;;8.90;99.90;8.80;100341.00;;;;4934748;28;87035;-65
2021/11/07 08:01:28;;;;;;;4.90;2.97;;;8.90;99.90;8.80;100351.00;;;;4933046;28;87998;-65
2021/11/07 08:03:55;;;;;;;4.30;2.77;;;8.90;99.90;8.90;100324.00;;;;4935501;28;98998;-64
2021/11/07 08:06:21;;;;;;;2.83;2.63;;;8.90;99.90;8.90;100318.00;;;;4935130;28;89519;-65
2021/11/07 08:08:47;;;;;;;5.73;2.53;;;8.90;99.90;8.80;100324.00;;;;4934987;28;87649;-64
2021/11/07 08:11:14;;;;;;;3.93;2.43;;;8.90;99.90;8.90;100322.00;;;;4936118;28;93249;-65
2021/11/07 08:13:41;;;;;;;4.13;2.40;;;8.90;99.90;8.80;100342.00;;;;4935141;28;88787;-64
2021/11/07 08:16:08;;;;;;;4.80;3.10;;;8.90;99.90;8.70;100305.00;;;;4935645;28;87912;-64
2021/11/07 08:18:35;;;;;;;2.90;2.60;;;8.80;99.90;8.60;100309.00;;;;4935315;28;87951;-65
2021/11/07 08:21:01;;;;;;;4.97;3.07;;;8.70;99.90;8.50;100315.00;;;;4935439;28;88089;-63
2021/11/07 08:23:28;;;;;;;3.70;2.57;;;8.60;99.90;8.50;100316.00;;;;4935594;28;88222;-63
2021/11/07 08:25:54;;;;;;;4.33;3.17;;;8.60;99.90;8.50;100304.00;;;;4935278;28;88170;-65
2021/11/07 08:28:21;;;;;;;6.77;2.53;;;8.60;99.90;8.60;100312.00;;;;4935211;28;88507;-65
2021/11/07 08:30:52;;;;;;;5.13;2.93;;;8.60;99.90;8.60;100314.00;;;;4935026;28;88835;-65
2021/11/07 08:33:19;;;;;;;4.67;2.87;;;8.60;99.90;8.70;100315.00;;;;4934177;28;87783;-65
2021/11/07 08:35:46;;;;;;;3.97;2.60;;;8.70;99.90;8.70;100334.00;;;;4934663;28;95643;-64
2021/11/07 08:38:23;;;;;;;8.10;2.97;;;9.10;99.90;8.80;100326.00;;;;4934655;28;87918;-64
2021/11/07 08:40:52;;;;;;;4.00;2.70;;;8.80;99.90;8.80;100332.00;;;;4935400;28;87859;-65
2021/11/07 09:05:02;;;;;;;3.50;2.83;;;8.80;99.90;8.70;100322.00;;;;4932370;28;87906;-64
2021/11/07 09:10:19;;;;;;;3.97;3.17;;;8.80;99.90;8.70;100315.00;;;;4931513;28;87688;-64
2021/11/07 09:12:45;;;;;;;6.43;3.70;;;8.70;99.90;8.70;100306.00;;;;4934333;28;87889;-65
2021/11/07 09:15:16;;;;;;;5.07;2.90;;;8.80;99.90;8.70;100334.00;;;;4935020;28;87962;-65
2021/11/07 09:17:44;;;;;;;4.03;2.90;;;8.70;99.90;8.70;100308.00;;;;4933329;28;87667;-64
2021/11/07 09:20:15;;;;;;;4.93;3.27;;;8.80;99.90;8.70;100295.00;;;;4934711;28;87934;-64
2021/11/07 09:22:47;;;;;;;5.33;3.47;;;8.70;99.90;8.70;100302.00;;;;4933641;28;88692;-65
2021/11/07 09:25:29;;;;;;;6.03;3.47;;;8.70;99.90;8.60;100296.00;;;;4934443;28;88105;-64
2021/11/07 09:27:59;;;;;;;5.37;3.63;;;8.70;99.90;8.60;100315.00;;;;4934356;28;87885;-65
2021/11/07 09:30:34;;;;;;;5.23;2.77;;;8.70;99.90;8.60;100313.00;;;;4934405;28;88069;-65
2021/11/07 09:38:23;;;;;;;3.73;2.50;;;8.60;99.90;8.60;100325.00;;;;4933213;28;88227;-65
2021/11/07 09:41:08;;;;;;;3.00;2.30;;;8.60;99.90;8.60;100318.00;;;;4934747;28;87019;-65
2021/11/07 09:43:58;;;;;;;4.33;2.93;;;8.60;99.90;8.50;100330.00;;;;4933935;28;87746;-66
2021/11/07 09:46:36;;;;;;;3.80;2.23;;;8.60;99.90;8.50;100322.00;;;;4933079;28;88325;-65
2021/11/07 09:49:21;;;;;;;3.70;2.37;;;8.60;99.90;8.50;100323.00;;;;4933035;28;88644;-65
2021/11/07 09:52:17;;;;;;;3.30;2.73;;;8.60;99.90;8.50;100320.00;;;;4933590;28;87900;-64
2021/11/07 09:54:54;;;;;;;4.53;3.03;;;8.90;99.90;8.40;100318.00;;;;4934170;28;87977;-65
2021/11/07 09:57:22;;;;;;;5.53;2.90;;;8.50;99.90;8.40;100311.00;;;;4933588;28;87697;-66
2021/11/07 09:59:56;;;;;;;3.70;3.10;;;8.40;99.90;8.30;100321.00;;;;4948473;28;89647;-66
2021/11/07 10:02:22;;;;;;;4.83;3.17;;;8.40;99.90;8.30;100310.00;;;;4931136;28;87900;-64
2021/11/07 10:04:48;;;;;;;3.73;2.50;;;8.40;99.90;8.40;100311.00;;;;4934064;28;88059;-65
2021/11/07 10:07:29;;;;;;;3.27;2.73;;;8.40;99.90;8.40;100307.00;;;;4933716;28;87228;-64
2021/11/07 10:10:02;;;;;;;3.63;2.60;;;8.40;99.90;8.40;100316.00;;;;4933426;28;88349;-66
2021/11/07 10:12:38;;;;;;;3.10;2.17;;;8.50;99.90;8.50;100312.00;;;;4934157;28;87964;-64
2021/11/07 10:15:10;;;;;;;2.67;2.20;;;8.50;99.90;8.50;100307.00;;;;4934082;28;88718;-64
2021/11/07 10:17:46;;;;;;;3.67;2.57;;;8.50;99.90;8.50;100303.00;;;;4932622;28;88909;-65
2021/11/07 10:20:48;;;;;;;3.17;2.50;;;8.60;99.90;8.50;100309.00;;;;4933638;28;88660;-64
2021/11/07 10:23:32;;;;;;;4.77;3.20;;;8.60;99.90;8.50;100306.00;;;;4928963;28;88002;-65
2021/11/07 10:26:11;;;;;;;3.60;2.10;;;8.60;99.90;8.40;100300.00;;;;4933898;28;87978;-65
2021/11/07 10:28:46;;;;;;;4.33;2.40;;;8.50;99.90;8.20;100292.00;;;;4931346;28;88916;-65
2021/11/07 10:31:32;;;;;;;3.63;2.57;;;8.30;99.90;8.10;100286.00;;;;4933477;28;87558;-66
2021/11/07 10:34:34;;;;;;;3.27;2.47;;;8.30;99.90;8.10;100296.00;;;;4934000;28;87097;-65
2021/11/07 10:46:12;;;;;;;3.93;2.43;;;8.00;99.90;7.90;100274.00;;;;4924104;28;87780;-65
2021/11/07 10:53:57;;;;;;;2.70;2.33;;;8.00;99.90;8.10;100267.00;;;;4933029;28;88100;-66
2021/11/07 10:56:24;;;;;;;1.93;1.60;;;8.10;99.90;8.10;100271.00;;;;4934097;28;87806;-65
2021/11/07 10:58:51;;;;;;;2.87;2.10;;;8.10;99.90;8.10;100271.00;;;;4932726;28;87858;-65
2021/11/07 11:01:24;;;;;;;2.93;1.87;;;8.20;99.90;8.20;100254.00;;;;4933746;28;88257;-65
2021/11/07 11:03:59;;;;;;;2.50;2.07;;;8.20;99.90;8.20;100251.00;;;;4932842;28;88041;-66
2021/11/07 11:06:25;;;;;;;2.27;1.87;;;8.30;99.90;8.30;100249.00;;;;4932559;28;87585;-65
2021/11/07 11:08:57;;;;;;;1.50;1.40;;;8.30;99.90;8.30;100250.00;;;;4932182;28;92491;-65
2021/11/07 11:11:47;;;;;;;3.07;2.13;;;8.30;99.90;8.40;100247.00;;;;4933325;28;87948;-65
2021/11/07 11:17:05;;;;;;;2.27;1.53;;;8.20;99.90;8.50;100253.00;;;;4929946;28;87809;-65
2021/11/07 11:19:48;;;;;;;4.23;1.80;;;8.50;99.90;8.60;100240.00;;;;4933344;28;87648;-65
2021/11/07 11:28:18;;;;;;;4.37;1.40;;;8.80;99.90;8.90;100218.00;;;;4931541;28;86911;-65
2021/11/07 11:30:39;;;;;;;1.67;1.10;;;8.90;99.90;8.90;100226.00;;;;4931545;28;89811;-65
2021/11/07 11:33:17;;;;;;;1.20;1.10;;;9.00;99.90;9.00;100244.00;;;;4932025;28;88305;-66
2021/11/07 11:36:12;;;;;;;1.23;1.13;;;9.00;99.90;9.10;100248.00;;;;4946834;28;88770;-65
2021/11/07 11:38:47;;;;;;;1.80;1.30;;;9.10;99.90;9.00;100225.00;;;;4932257;28;87780;-65
2021/11/07 11:42:00;;;;;;;1.10;1.00;;;9.10;99.90;9.00;100251.00;;;;4932886;28;87674;-64
2021/11/07 11:44:03;;;;;;;1.23;1.00;;;9.10;99.90;9.00;100250.00;;;;4931710;28;88847;-65
2021/11/07 11:46:49;;;;;;;9.17;2.03;;;9.10;99.90;9.00;100231.00;;;;4932667;28;88275;-64
2021/11/07 11:54:43;;;;;;;1.10;0.83;;;9.00;99.90;8.90;100240.00;;;;4932603;28;87899;-64
2021/11/07 12:03:15;;;;;;;1.67;1.00;;;8.90;99.90;8.90;100224.00;;;;4930836;28;88705;-65
2021/11/07 12:10:56;;;;;;;1.07;0.97;;;9.00;99.90;8.90;100207.00;;;;4930099;28;87955;-65
2021/11/07 12:13:53;;;;;;;0.50;0.50;;;9.00;99.90;8.90;100212.00;;;;4932168;28;87996;-64
2021/11/07 12:16:53;;;;;;;0.60;0.60;;;9.00;99.90;8.90;100209.00;;;;4946671;28;87904;-65
2021/11/07 12:19:29;;;;;;;0.50;0.50;;;9.00;99.90;8.90;100218.00;;;;4932535;28;87893;-63
2021/11/07 12:22:14;;;;;;;0.30;0.30;;;9.00;99.90;8.90;100205.00;;;;4930534;28;87122;-63
2021/11/07 12:24:49;;;;;;;1.13;0.90;;;9.00;99.90;8.90;100202.00;;;;4932534;28;87881;-64
2021/11/07 12:27:52;;;;;;;0.50;0.50;;;9.10;99.90;8.90;100198.00;;;;4931893;28;88898;-63
2021/11/07 12:30:29;;;;;;;0.47;0.40;;;9.00;99.90;9.00;100195.00;;;;4923943;28;88854;-63
2021/11/07 12:33:11;;;;;;;1.07;0.70;;;9.00;99.90;8.90;100193.00;;;;4931535;28;88367;-64
2021/11/07 12:35:42;;;;;;;1.03;0.60;;;8.70;99.90;9.00;100185.00;;;;4932433;28;87831;-63
2021/11/07 12:41:11;;;;;;;0.83;0.63;;;9.00;99.90;9.00;100176.00;;;;4929205;28;87757;-64
2021/11/07 12:43:43;;;;;;;0.70;0.60;;;9.00;99.90;9.10;100159.00;;;;4931440;28;88351;-65
2021/11/07 12:46:58;;;;;;;0.40;0.40;;;9.10;99.90;9.00;100160.00;;;;4933851;28;88893;-64
2021/11/07 12:49:15;;;;;;;1.37;0.60;;;9.10;99.90;9.10;100159.00;;;;4933650;28;87269;-64
2021/11/07 12:51:47;;;;;;;0.60;0.60;;;9.10;99.90;9.10;100146.00;;;;4935352;28;87749;-65
2021/11/07 12:54:29;;;;;;;0.50;0.37;;;9.10;99.90;9.10;100159.00;;;;4935323;28;91275;-64
2021/11/07 12:56:58;;;;;;;0.50;0.50;;;9.10;99.90;9.10;100159.00;;;;4935061;28;88924;-64
2021/11/07 12:59:39;;;;;;;0.70;0.70;;;9.10;99.90;9.20;100159.00;;;;4934384;28;89020;-64
2021/11/07 13:02:31;;;;;;;0.83;0.47;;;9.20;99.90;9.20;100155.00;;;;4934491;28;87981;-64